createdAt,value
2022-10-17T00:00:29.068Z,0.00
2022-10-17T00:01:29.095Z,0.00
2022-10-17T00:02:29.039Z,0.00
2022-10-17T00:03:29.004Z,0.00
2022-10-17T00:04:29.033Z,0.00
2022-10-17T00:05:28.952Z,0.00
2022-10-17T00:06:28.952Z,0.00
2022-10-17T00:07:29.317Z,0.00
2022-10-17T00:08:28.876Z,0.00
2022-10-17T00:09:28.859Z,0.00
2022-10-17T00:10:28.837Z,0.00
2022-10-17T00:11:28.842Z,0.00
2022-10-17T00:12:28.785Z,0.00
2022-10-17T00:13:28.819Z,0.00
2022-10-17T00:14:28.747Z,0.00
2022-10-17T00:15:28.723Z,0.00
2022-10-17T00:16:28.749Z,0.00
2022-10-17T00:17:28.964Z,0.00
2022-10-17T00:18:28.659Z,0.00
2022-10-17T00:19:28.638Z,0.00
2022-10-17T00:20:28.619Z,0.00
2022-10-17T00:21:28.624Z,0.00
2022-10-17T00:22:28.617Z,0.00
2022-10-17T00:23:28.549Z,0.00
2022-10-17T00:24:28.528Z,0.00
2022-10-17T00:25:28.511Z,0.00
2022-10-17T00:26:28.510Z,0.00
2022-10-17T00:27:28.897Z,0.00
2022-10-17T00:28:28.491Z,0.00
2022-10-17T00:29:28.421Z,0.00
2022-10-17T00:30:28.395Z,0.00
2022-10-17T00:31:28.397Z,0.00
2022-10-17T00:32:28.775Z,0.00
2022-10-17T00:33:28.329Z,0.00
2022-10-17T00:34:28.313Z,0.00
2022-10-17T00:35:28.296Z,0.00
2022-10-17T00:36:28.293Z,0.00
2022-10-17T00:37:28.244Z,0.00
2022-10-17T00:38:28.223Z,0.00
2022-10-17T00:39:28.200Z,0.00
2022-10-17T00:40:28.178Z,0.00
2022-10-17T00:41:28.183Z,0.00
2022-10-17T00:42:28.404Z,0.00
2022-10-17T00:43:28.109Z,0.00
2022-10-17T00:44:28.094Z,0.00
2022-10-17T00:45:28.067Z,0.00
2022-10-17T00:46:28.081Z,0.00
2022-10-17T00:47:28.023Z,0.00
2022-10-17T00:48:28.001Z,0.00
2022-10-17T00:49:27.978Z,0.00
2022-10-17T00:50:27.966Z,0.00
2022-10-17T00:51:27.959Z,0.00
2022-10-17T00:52:28.065Z,0.00
2022-10-17T00:53:27.890Z,0.00
2022-10-17T00:54:27.864Z,0.00
2022-10-17T00:55:27.845Z,0.00
2022-10-17T00:56:27.847Z,0.00
2022-10-17T00:57:27.797Z,0.00
2022-10-17T00:58:27.778Z,0.00
2022-10-17T00:59:27.755Z,0.00
2022-10-17T01:00:27.736Z,0.00
2022-10-17T01:01:27.775Z,0.00
2022-10-17T01:02:28.028Z,0.00
2022-10-17T01:03:27.668Z,0.00
2022-10-17T01:04:27.649Z,0.00
2022-10-17T01:05:27.619Z,0.00
2022-10-17T01:06:27.627Z,0.00
2022-10-17T01:07:27.577Z,0.00
2022-10-17T01:08:27.555Z,0.00
2022-10-17T01:09:27.534Z,0.00
2022-10-17T01:10:27.512Z,0.00
2022-10-17T01:11:27.517Z,0.00
2022-10-17T01:12:27.676Z,0.00
2022-10-17T01:13:27.445Z,0.00
2022-10-17T01:14:27.418Z,0.00
2022-10-17T01:15:27.396Z,0.00
2022-10-17T01:16:27.405Z,0.00
2022-10-17T01:17:27.354Z,0.00
2022-10-17T01:18:27.332Z,0.00
2022-10-17T01:19:27.319Z,0.00
2022-10-17T01:20:27.288Z,0.00
2022-10-17T01:21:27.289Z,0.00
2022-10-17T01:22:27.545Z,0.00
2022-10-17T01:23:27.218Z,0.00
2022-10-17T01:24:27.202Z,0.00
2022-10-17T01:25:27.179Z,0.00
2022-10-17T01:26:27.183Z,0.00
2022-10-17T01:27:27.130Z,0.00
2022-10-17T01:28:27.220Z,0.00
2022-10-17T01:29:27.091Z,0.00
2022-10-17T01:30:27.064Z,0.00
2022-10-17T01:31:27.068Z,0.00
2022-10-17T01:32:27.268Z,0.00
2022-10-17T01:33:26.998Z,0.00
2022-10-17T01:34:26.970Z,0.00
2022-10-17T01:35:27.954Z,0.00
2022-10-17T01:36:26.956Z,0.00
2022-10-17T01:37:26.908Z,0.00
2022-10-17T01:38:26.885Z,0.00
2022-10-17T01:39:29.359Z,0.00
2022-10-17T01:40:26.842Z,0.00
2022-10-17T01:41:26.845Z,0.00
2022-10-17T01:42:27.118Z,0.00
2022-10-17T01:43:26.771Z,0.00
2022-10-17T01:44:26.749Z,0.00
2022-10-17T01:45:26.730Z,0.00
2022-10-17T01:46:26.736Z,0.00
2022-10-17T01:47:26.945Z,0.00
2022-10-17T01:48:26.661Z,0.00
2022-10-17T01:49:26.641Z,0.00
2022-10-17T01:50:26.618Z,0.00
2022-10-17T01:51:26.626Z,0.00
2022-10-17T01:52:26.584Z,0.00
2022-10-17T01:53:26.558Z,0.00
2022-10-17T01:54:26.525Z,0.00
2022-10-17T01:55:26.505Z,0.00
2022-10-17T01:56:26.508Z,0.00
2022-10-17T01:57:26.877Z,0.00
2022-10-17T01:58:26.438Z,0.00
2022-10-17T01:59:26.417Z,0.00
2022-10-17T02:00:26.390Z,0.00
2022-10-17T02:01:26.438Z,0.00
2022-10-17T02:02:26.339Z,0.00
2022-10-17T02:03:26.328Z,0.00
2022-10-17T02:04:26.308Z,0.00
2022-10-17T02:05:26.283Z,0.00
2022-10-17T02:06:26.292Z,0.00
2022-10-17T02:07:26.732Z,0.00
2022-10-17T02:08:26.216Z,0.00
2022-10-17T02:09:26.194Z,0.00
2022-10-17T02:10:26.176Z,0.00
2022-10-17T02:11:26.175Z,0.00
2022-10-17T02:12:26.127Z,0.00
2022-10-17T02:13:26.107Z,0.00
2022-10-17T02:14:26.087Z,0.00
2022-10-17T02:15:26.062Z,0.00
2022-10-17T02:16:26.062Z,0.00
2022-10-17T02:17:26.211Z,0.00
2022-10-17T02:18:25.997Z,0.00
2022-10-17T02:19:25.974Z,0.00
2022-10-17T02:20:25.952Z,0.00
2022-10-17T02:21:25.957Z,0.00
2022-10-17T02:22:25.902Z,0.00
2022-10-17T02:23:25.889Z,0.00
2022-10-17T02:24:25.861Z,0.00
2022-10-17T02:25:25.840Z,0.00
2022-10-17T02:26:25.845Z,0.00
2022-10-17T02:27:26.120Z,0.00
2022-10-17T02:28:25.799Z,0.00
2022-10-17T02:29:25.753Z,0.00
2022-10-17T02:30:25.729Z,0.00
2022-10-17T02:31:25.729Z,0.00
2022-10-17T02:32:25.696Z,0.00
2022-10-17T02:33:25.668Z,0.00
2022-10-17T02:34:25.640Z,0.00
2022-10-17T02:35:25.622Z,0.00
2022-10-17T02:36:25.619Z,0.00
2022-10-17T02:37:25.816Z,0.00
2022-10-17T02:38:25.545Z,0.00
2022-10-17T02:39:25.524Z,0.00
2022-10-17T02:40:25.518Z,0.00
2022-10-17T02:41:25.521Z,0.00
2022-10-17T02:42:25.455Z,0.00
2022-10-17T02:43:25.428Z,0.00
2022-10-17T02:44:25.406Z,0.00
2022-10-17T02:45:25.387Z,0.00
2022-10-17T02:46:25.392Z,0.00
2022-10-17T02:47:25.345Z,0.00
2022-10-17T02:48:25.321Z,0.00
2022-10-17T02:49:25.299Z,0.00
2022-10-17T02:50:25.288Z,0.00
2022-10-17T02:51:25.281Z,0.00
2022-10-17T02:52:25.229Z,0.00
2022-10-17T02:53:25.210Z,0.00
2022-10-17T02:54:25.182Z,0.00
2022-10-17T02:55:25.166Z,0.00
2022-10-17T02:56:25.171Z,0.00
2022-10-17T02:57:25.121Z,0.00
2022-10-17T02:58:25.093Z,0.00
2022-10-17T02:59:25.120Z,0.00
2022-10-17T03:00:25.051Z,0.00
2022-10-17T03:01:25.098Z,0.00
2022-10-17T03:02:25.012Z,0.00
2022-10-17T03:03:24.978Z,0.00
2022-10-17T03:04:24.964Z,0.00
2022-10-17T03:05:24.943Z,0.00
2022-10-17T03:06:24.943Z,0.00
2022-10-17T03:07:24.897Z,0.00
2022-10-17T03:08:24.910Z,0.00
2022-10-17T03:09:24.850Z,0.00
2022-10-17T03:10:24.828Z,0.00
2022-10-17T03:11:24.842Z,0.00
2022-10-17T03:12:24.785Z,0.00
2022-10-17T03:13:24.767Z,0.00
2022-10-17T03:14:24.741Z,0.00
2022-10-17T03:15:24.717Z,0.00
2022-10-17T03:16:24.724Z,0.00
2022-10-17T03:17:24.676Z,0.00
2022-10-17T03:18:24.652Z,0.00
2022-10-17T03:19:24.634Z,0.00
2022-10-17T03:20:24.617Z,0.00
2022-10-17T03:21:24.618Z,0.00
2022-10-17T03:22:24.567Z,0.00
2022-10-17T03:23:24.568Z,0.00
2022-10-17T03:24:24.524Z,0.00
2022-10-17T03:25:24.502Z,0.00
2022-10-17T03:26:24.506Z,0.00
2022-10-17T03:27:24.454Z,0.00
2022-10-17T03:28:24.469Z,0.00
2022-10-17T03:29:24.415Z,0.00
2022-10-17T03:30:24.393Z,0.00
2022-10-17T03:31:24.392Z,0.00
2022-10-17T03:32:24.343Z,0.00
2022-10-17T03:33:24.321Z,0.00
2022-10-17T03:34:24.302Z,0.00
2022-10-17T03:35:24.284Z,0.00
2022-10-17T03:36:24.284Z,0.00
2022-10-17T03:37:24.231Z,0.00
2022-10-17T03:38:25.211Z,0.00
2022-10-17T03:39:24.189Z,0.00
2022-10-17T03:40:24.162Z,0.00
2022-10-17T03:41:24.171Z,0.00
2022-10-17T03:42:24.124Z,0.00
2022-10-17T03:43:24.098Z,0.00
2022-10-17T03:44:24.079Z,0.00
2022-10-17T03:45:24.057Z,0.00
2022-10-17T03:46:24.064Z,0.00
2022-10-17T03:47:24.013Z,0.00
2022-10-17T03:48:23.989Z,0.00
2022-10-17T03:49:23.968Z,0.00
2022-10-17T03:50:23.944Z,0.00
2022-10-17T03:51:23.951Z,0.00
2022-10-17T03:52:23.901Z,0.00
2022-10-17T03:53:23.878Z,0.00
2022-10-17T03:54:23.860Z,0.00
2022-10-17T03:55:23.833Z,0.00
2022-10-17T03:56:23.840Z,0.00
2022-10-17T03:57:23.787Z,0.00
2022-10-17T03:58:23.765Z,0.00
2022-10-17T03:59:23.741Z,0.00
2022-10-17T04:00:23.720Z,0.00
2022-10-17T04:01:23.810Z,0.00
2022-10-17T04:02:23.675Z,0.00
2022-10-17T04:03:23.649Z,0.00
2022-10-17T04:04:23.625Z,0.00
2022-10-17T04:05:23.602Z,0.00
2022-10-17T04:06:23.610Z,0.00
2022-10-17T04:07:23.608Z,0.00
2022-10-17T04:08:23.533Z,0.00
2022-10-17T04:09:23.514Z,0.00
2022-10-17T04:10:23.488Z,0.00
2022-10-17T04:11:23.495Z,0.00
2022-10-17T04:12:23.443Z,0.00
2022-10-17T04:13:23.420Z,0.00
2022-10-17T04:14:23.399Z,0.00
2022-10-17T04:15:23.452Z,0.00
2022-10-17T04:16:24.383Z,0.00
2022-10-17T04:17:23.337Z,0.00
2022-10-17T04:18:23.313Z,0.00
2022-10-17T04:19:23.312Z,0.00
2022-10-17T04:20:23.264Z,0.00
2022-10-17T04:21:23.276Z,0.00
2022-10-17T04:22:23.219Z,0.00
2022-10-17T04:23:23.199Z,0.00
2022-10-17T04:24:23.181Z,0.00
2022-10-17T04:25:23.155Z,0.00
2022-10-17T04:26:23.136Z,0.00
2022-10-17T04:27:23.138Z,0.00
2022-10-17T04:28:23.188Z,0.00
2022-10-17T04:29:23.065Z,0.00
2022-10-17T04:30:23.043Z,0.00
2022-10-17T04:31:23.021Z,0.00
2022-10-17T04:32:23.028Z,0.00
2022-10-17T04:33:22.975Z,0.00
2022-10-17T04:34:22.952Z,0.00
2022-10-17T04:35:22.928Z,0.00
2022-10-17T04:36:22.913Z,0.00
2022-10-17T04:37:22.908Z,0.00
2022-10-17T04:38:27.647Z,0.00
2022-10-17T04:39:24.837Z,0.00
2022-10-17T04:40:22.821Z,0.00
2022-10-17T04:41:22.791Z,0.00
2022-10-17T04:42:22.801Z,0.00
2022-10-17T04:43:22.746Z,0.00
2022-10-17T04:44:22.727Z,0.00
2022-10-17T04:45:22.700Z,0.00
2022-10-17T04:46:22.681Z,0.00
2022-10-17T04:47:22.682Z,0.00
2022-10-17T04:48:22.631Z,0.00
2022-10-17T04:49:22.608Z,0.00
2022-10-17T04:50:22.585Z,0.00
2022-10-17T04:51:24.603Z,0.00
2022-10-17T04:52:22.566Z,0.00
2022-10-17T04:53:22.523Z,0.00
2022-10-17T04:54:22.502Z,0.00
2022-10-17T04:55:22.475Z,0.00
2022-10-17T04:56:22.451Z,0.00
2022-10-17T04:57:22.454Z,0.00
2022-10-17T04:58:22.410Z,0.00
2022-10-17T04:59:22.382Z,0.00
2022-10-17T05:00:22.355Z,0.00
2022-10-17T05:01:22.372Z,0.00
2022-10-17T05:02:22.338Z,0.00
2022-10-17T05:03:22.290Z,0.00
2022-10-17T05:04:24.727Z,0.00
2022-10-17T05:05:23.242Z,0.00
2022-10-17T05:06:22.229Z,4.00
2022-10-17T05:07:22.225Z,0.00
2022-10-17T05:08:22.174Z,0.00
2022-10-17T05:09:22.156Z,0.00
2022-10-17T05:10:22.128Z,0.00
2022-10-17T05:11:22.107Z,4.00
2022-10-17T05:12:22.112Z,0.00
2022-10-17T05:13:22.060Z,0.00
2022-10-17T05:14:22.040Z,4.00
2022-10-17T05:15:22.019Z,0.00
2022-10-17T05:16:21.996Z,4.00
2022-10-17T05:17:21.999Z,4.00
2022-10-17T05:18:21.947Z,4.00
2022-10-17T05:19:21.928Z,4.00
2022-10-17T05:20:21.906Z,4.00
2022-10-17T05:21:21.944Z,8.00
2022-10-17T05:22:21.891Z,8.00
2022-10-17T05:23:21.834Z,8.00
2022-10-17T05:24:21.818Z,12.00
2022-10-17T05:25:21.797Z,12.00
2022-10-17T05:26:21.775Z,12.00
2022-10-17T05:27:21.777Z,16.00
2022-10-17T05:28:21.771Z,16.00
2022-10-17T05:29:21.705Z,20.00
2022-10-17T05:30:21.685Z,24.00
2022-10-17T05:31:21.657Z,28.00
2022-10-17T05:32:21.674Z,36.00
2022-10-17T05:33:21.612Z,40.00
2022-10-17T05:34:21.592Z,48.00
2022-10-17T05:35:21.571Z,56.00
2022-10-17T05:36:21.554Z,68.00
2022-10-17T05:37:21.553Z,76.00
2022-10-17T05:38:21.507Z,92.00
2022-10-17T05:39:21.487Z,104.00
2022-10-17T05:40:21.462Z,124.00
2022-10-17T05:41:21.438Z,144.00
2022-10-17T05:42:21.497Z,168.00
2022-10-17T05:43:21.391Z,192.00
2022-10-17T05:44:21.367Z,216.00
2022-10-17T05:45:21.345Z,232.00
2022-10-17T05:46:21.322Z,252.00
2022-10-17T05:47:21.324Z,272.00
2022-10-17T05:48:21.274Z,292.00
2022-10-17T05:49:33.003Z,320.00
2022-10-17T05:50:23.232Z,352.00
2022-10-17T05:51:21.208Z,392.00
2022-10-17T05:52:21.213Z,444.00
2022-10-17T05:53:21.166Z,496.00
2022-10-17T05:54:21.135Z,548.00
2022-10-17T05:55:21.113Z,604.00
2022-10-17T05:56:21.093Z,676.00
2022-10-17T05:57:21.096Z,760.00
2022-10-17T05:58:22.052Z,852.00
2022-10-17T05:59:23.068Z,932.00
2022-10-17T06:00:21.004Z,992.00
2022-10-17T06:01:20.993Z,1036.00
2022-10-17T06:02:21.009Z,1084.00
2022-10-17T06:03:20.926Z,1152.00
2022-10-17T06:04:21.939Z,1240.00
2022-10-17T06:05:20.899Z,1356.00
2022-10-17T06:06:20.868Z,1476.00
2022-10-17T06:07:20.839Z,1608.00
2022-10-17T06:08:20.818Z,1732.00
2022-10-17T06:09:20.819Z,1856.00
2022-10-17T06:10:20.771Z,1976.00
2022-10-17T06:11:20.753Z,2088.00
2022-10-17T06:12:20.755Z,2200.00
2022-10-17T06:13:20.702Z,2312.00
2022-10-17T06:14:20.681Z,2436.00
2022-10-17T06:15:20.658Z,2564.00
2022-10-17T06:16:20.635Z,2704.00
2022-10-17T06:17:20.640Z,2856.00
2022-10-17T06:18:20.596Z,3016.00
2022-10-17T06:19:20.573Z,3196.00
2022-10-17T06:20:20.547Z,3400.00
2022-10-17T06:21:20.526Z,3600.00
2022-10-17T06:22:20.527Z,3768.00
2022-10-17T06:23:20.478Z,3920.00
2022-10-17T06:24:20.474Z,4116.00
2022-10-17T06:25:20.474Z,4368.00
2022-10-17T06:26:20.417Z,4596.00
2022-10-17T06:27:21.385Z,4872.00
2022-10-17T06:28:20.364Z,5132.00
2022-10-17T06:29:20.343Z,5556.00
2022-10-17T06:30:20.349Z,5568.00
2022-10-17T06:31:20.297Z,5832.00
2022-10-17T06:32:20.276Z,6084.00
2022-10-17T06:33:20.255Z,6284.00
2022-10-17T06:34:20.231Z,7792.00
2022-10-17T06:35:20.243Z,13120.00
2022-10-17T06:36:20.187Z,11564.00
2022-10-17T06:37:20.196Z,9604.00
2022-10-17T06:38:20.142Z,9552.00
2022-10-17T06:39:20.122Z,11204.00
2022-10-17T06:40:20.104Z,17312.00
2022-10-17T06:41:20.083Z,19008.00
2022-10-17T06:42:20.089Z,21856.00
2022-10-17T06:43:20.694Z,24992.00
2022-10-17T06:44:20.005Z,28736.00
2022-10-17T06:45:20.992Z,30208.00
2022-10-17T06:46:19.969Z,35456.00
2022-10-17T06:47:20.253Z,36768.00
2022-10-17T06:48:19.928Z,39360.00
2022-10-17T06:49:19.911Z,36288.00
2022-10-17T06:50:19.892Z,37856.00
2022-10-17T06:51:19.874Z,37952.00
2022-10-17T06:52:19.882Z,33600.00
2022-10-17T06:53:19.834Z,38080.00
2022-10-17T06:54:19.817Z,45856.00
2022-10-17T06:55:22.766Z,47392.00
2022-10-17T06:56:19.777Z,43424.00
2022-10-17T06:57:19.788Z,44512.00
2022-10-17T06:58:19.738Z,41952.00
2022-10-17T06:59:19.719Z,32608.00
2022-10-17T07:00:19.701Z,43360.00
2022-10-17T07:01:19.680Z,50656.00
2022-10-17T07:02:19.683Z,49568.00
2022-10-17T07:03:19.643Z,50112.00
2022-10-17T07:04:19.648Z,51520.00
2022-10-17T07:05:19.599Z,52864.00
2022-10-17T07:06:19.589Z,55648.00
2022-10-17T07:07:19.597Z,49856.00
2022-10-17T07:08:19.544Z,41056.00
2022-10-17T07:09:19.525Z,44576.00
2022-10-17T07:10:19.510Z,46656.00
2022-10-17T07:11:19.504Z,56128.00
2022-10-17T07:12:19.505Z,57600.00
2022-10-17T07:13:19.449Z,46208.00
2022-10-17T07:14:19.437Z,37344.00
2022-10-17T07:15:19.413Z,19168.00
2022-10-17T07:16:19.400Z,27232.00
2022-10-17T07:17:19.406Z,16352.00
2022-10-17T07:18:19.363Z,33600.00
2022-10-17T07:19:19.336Z,36512.00
2022-10-17T07:20:19.323Z,35264.00
2022-10-17T07:21:19.309Z,40640.00
2022-10-17T07:22:19.284Z,47840.00
2022-10-17T07:23:19.308Z,49312.00
2022-10-17T07:24:19.261Z,47488.00
2022-10-17T07:25:19.225Z,47744.00
2022-10-17T07:26:19.219Z,45120.00
2022-10-17T07:27:19.192Z,42400.00
2022-10-17T07:28:19.209Z,36064.00
2022-10-17T07:29:19.152Z,38592.00
2022-10-17T07:30:19.136Z,36416.00
2022-10-17T07:31:19.120Z,32064.00
2022-10-17T07:32:19.093Z,27584.00
2022-10-17T07:33:19.110Z,29056.00
2022-10-17T07:34:19.053Z,29504.00
2022-10-17T07:35:19.039Z,23072.00
2022-10-17T07:36:19.048Z,16800.00
2022-10-17T07:37:18.996Z,15936.00
2022-10-17T07:38:19.007Z,17248.00
2022-10-17T07:39:18.952Z,19104.00
2022-10-17T07:40:19.946Z,21472.00
2022-10-17T07:41:20.950Z,20192.00
2022-10-17T07:42:18.906Z,21856.00
2022-10-17T07:43:18.917Z,21344.00
2022-10-17T07:44:18.876Z,19584.00
2022-10-17T07:45:18.854Z,17536.00
2022-10-17T07:46:18.835Z,18208.00
2022-10-17T07:47:18.819Z,21536.00
2022-10-17T07:48:18.837Z,19296.00
2022-10-17T07:49:18.779Z,17920.00
2022-10-17T07:50:18.764Z,15968.00
2022-10-17T07:51:18.743Z,14800.00
2022-10-17T07:52:18.723Z,15584.00
2022-10-17T07:53:18.729Z,15904.00
2022-10-17T07:54:18.685Z,14900.00
2022-10-17T07:55:18.667Z,14840.00
2022-10-17T07:56:18.648Z,15360.00
2022-10-17T07:57:18.631Z,16128.00
2022-10-17T07:58:18.637Z,16288.00
2022-10-17T07:59:18.602Z,17024.00
2022-10-17T08:00:18.573Z,17600.00
2022-10-17T08:01:18.551Z,18112.00
2022-10-17T08:02:18.533Z,20032.00
2022-10-17T08:03:18.542Z,20832.00
2022-10-17T08:04:18.498Z,20096.00
2022-10-17T08:05:18.507Z,18592.00
2022-10-17T08:06:18.455Z,20544.00
2022-10-17T08:07:22.126Z,23264.00
2022-10-17T08:08:20.445Z,24576.00
2022-10-17T08:09:18.402Z,22816.00
2022-10-17T08:10:18.383Z,23968.00
2022-10-17T08:11:18.351Z,26560.00
2022-10-17T08:12:19.343Z,26656.00
2022-10-17T08:13:18.346Z,24800.00
2022-10-17T08:14:18.302Z,23648.00
2022-10-17T08:15:18.290Z,23424.00
2022-10-17T08:16:18.260Z,23776.00
2022-10-17T08:17:18.244Z,25216.00
2022-10-17T08:18:18.255Z,27392.00
2022-10-17T08:19:18.205Z,29856.00
2022-10-17T08:20:18.182Z,31136.00
2022-10-17T08:21:18.196Z,30464.00
2022-10-17T08:22:18.148Z,33888.00
2022-10-17T08:23:18.158Z,33856.00
2022-10-17T08:24:18.114Z,34528.00
2022-10-17T08:25:18.095Z,35008.00
2022-10-17T08:26:18.073Z,35616.00
2022-10-17T08:27:18.053Z,34112.00
2022-10-17T08:28:18.061Z,33120.00
2022-10-17T08:29:18.032Z,30048.00
2022-10-17T08:30:17.997Z,29024.00
2022-10-17T08:31:17.977Z,31328.00
2022-10-17T08:32:17.960Z,31200.00
2022-10-17T08:33:17.965Z,35136.00
2022-10-17T08:34:17.919Z,32832.00
2022-10-17T08:35:17.898Z,33824.00
2022-10-17T08:36:17.889Z,35296.00
2022-10-17T08:37:17.864Z,30880.00
2022-10-17T08:38:20.911Z,30784.00
2022-10-17T08:39:18.817Z,35808.00
2022-10-17T08:40:17.802Z,41536.00
2022-10-17T08:41:17.783Z,40192.00
2022-10-17T08:42:17.762Z,42496.00
2022-10-17T08:43:17.774Z,41184.00
2022-10-17T08:44:17.723Z,41088.00
2022-10-17T08:45:17.699Z,41824.00
2022-10-17T08:46:17.695Z,24256.00
2022-10-17T08:47:17.706Z,21760.00
2022-10-17T08:48:17.668Z,27008.00
2022-10-17T08:49:17.623Z,31808.00
2022-10-17T08:50:17.612Z,38528.00
2022-10-17T08:51:17.593Z,44768.00
2022-10-17T08:52:17.572Z,40192.00
2022-10-17T08:53:17.579Z,46336.00
2022-10-17T08:54:17.542Z,45088.00
2022-10-17T08:55:17.513Z,43264.00
2022-10-17T08:56:19.898Z,38784.00
2022-10-17T08:57:19.476Z,30880.00
2022-10-17T08:58:17.486Z,21056.00
2022-10-17T08:59:17.440Z,24288.00
2022-10-17T09:00:17.413Z,25984.00
2022-10-17T09:01:17.401Z,21184.00
2022-10-17T09:02:17.387Z,28640.00
2022-10-17T09:03:17.465Z,30976.00
2022-10-17T09:04:17.441Z,36384.00
2022-10-17T09:05:18.055Z,31136.00
2022-10-17T09:06:17.304Z,21504.00
2022-10-17T09:07:17.287Z,16416.00
2022-10-17T09:08:17.289Z,19968.00
2022-10-17T09:09:17.248Z,21600.00
2022-10-17T09:10:17.230Z,20288.00
2022-10-17T09:11:17.210Z,15776.00
2022-10-17T09:12:17.197Z,25440.00
2022-10-17T09:13:17.199Z,33792.00
2022-10-17T09:14:17.158Z,23200.00
2022-10-17T09:15:17.140Z,44320.00
2022-10-17T09:16:17.117Z,42784.00
2022-10-17T09:17:17.099Z,41248.00
2022-10-17T09:18:19.819Z,45376.00
2022-10-17T09:19:17.061Z,46720.00
2022-10-17T09:20:17.045Z,42560.00
2022-10-17T09:21:17.029Z,43680.00
2022-10-17T09:22:17.008Z,44448.00
2022-10-17T09:23:17.018Z,47104.00
2022-10-17T09:24:16.976Z,47008.00
2022-10-17T09:25:16.956Z,56736.00
2022-10-17T09:26:16.933Z,70944.00
2022-10-17T09:27:16.914Z,66336.00
2022-10-17T09:28:16.921Z,40064.00
2022-10-17T09:29:16.885Z,30528.00
2022-10-17T09:30:27.009Z,28896.00
2022-10-17T09:31:18.843Z,27200.00
2022-10-17T09:32:16.823Z,24896.00
2022-10-17T09:33:35.149Z,24896.00
2022-10-17T09:34:18.787Z,26464.00
2022-10-17T09:35:16.772Z,25408.00
2022-10-17T09:36:16.749Z,25056.00
2022-10-17T09:37:16.731Z,26208.00
2022-10-17T09:38:16.738Z,27904.00
2022-10-17T09:39:16.696Z,27392.00
2022-10-17T09:40:16.679Z,25824.00
2022-10-17T09:41:43.053Z,25024.00
2022-10-17T09:42:18.642Z,25536.00
2022-10-17T09:43:16.650Z,25920.00
2022-10-17T09:44:16.598Z,25728.00
2022-10-17T09:45:16.584Z,25696.00
2022-10-17T09:46:16.558Z,25248.00
2022-10-17T09:47:16.546Z,24704.00
2022-10-17T09:48:16.556Z,24512.00
2022-10-17T09:49:17.417Z,26208.00
2022-10-17T09:50:16.496Z,25504.00
2022-10-17T09:51:25.640Z,24416.00
2022-10-17T09:52:18.460Z,24096.00
2022-10-17T09:53:16.465Z,22880.00
2022-10-17T09:54:16.410Z,20032.00
2022-10-17T09:55:17.392Z,23776.00
2022-10-17T09:56:17.386Z,25984.00
2022-10-17T09:57:16.371Z,25760.00
2022-10-17T09:58:16.369Z,24992.00
2022-10-17T09:59:16.330Z,26176.00
2022-10-17T10:00:16.313Z,27168.00
2022-10-17T10:01:20.988Z,27200.00
2022-10-17T10:02:18.280Z,27776.00
2022-10-17T10:03:16.282Z,32000.00
2022-10-17T10:04:17.237Z,28608.00
2022-10-17T10:05:16.217Z,28256.00
2022-10-17T10:06:16.201Z,28224.00
2022-10-17T10:07:16.183Z,31456.00
2022-10-17T10:08:16.194Z,26720.00
2022-10-17T10:09:16.186Z,31808.00
2022-10-17T10:10:16.124Z,25856.00
2022-10-17T10:11:16.126Z,24320.00
2022-10-17T10:12:16.090Z,27392.00
2022-10-17T10:13:16.106Z,28288.00
2022-10-17T10:14:16.058Z,24032.00
2022-10-17T10:15:16.041Z,20640.00
2022-10-17T10:16:16.023Z,17632.00
2022-10-17T10:17:16.000Z,15072.00
2022-10-17T10:18:16.014Z,13840.00
2022-10-17T10:19:15.967Z,13440.00
2022-10-17T10:20:15.949Z,13392.00
2022-10-17T10:21:15.929Z,12812.00
2022-10-17T10:22:15.911Z,13096.00
2022-10-17T10:23:15.922Z,12820.00
2022-10-17T10:24:15.869Z,12660.00
2022-10-17T10:25:15.854Z,12512.00
2022-10-17T10:26:20.162Z,12296.00
2022-10-17T10:27:17.824Z,11968.00
2022-10-17T10:28:15.830Z,12036.00
2022-10-17T10:29:15.782Z,11816.00
2022-10-17T10:30:15.766Z,11548.00
2022-10-17T10:31:15.747Z,11508.00
2022-10-17T10:32:15.724Z,11340.00
2022-10-17T10:33:15.737Z,11324.00
2022-10-17T10:34:15.689Z,11044.00
2022-10-17T10:35:15.669Z,11192.00
2022-10-17T10:36:15.655Z,11176.00
2022-10-17T10:37:16.986Z,11256.00
2022-10-17T10:38:15.644Z,11160.00
2022-10-17T10:39:15.595Z,11300.00
2022-10-17T10:40:15.576Z,11404.00
2022-10-17T10:41:15.560Z,11416.00
2022-10-17T10:42:15.535Z,11276.00
2022-10-17T10:43:15.546Z,11296.00
2022-10-17T10:44:15.504Z,11692.00
2022-10-17T10:45:29.438Z,12036.00
2022-10-17T10:46:17.460Z,11916.00
2022-10-17T10:47:15.450Z,11768.00
2022-10-17T10:48:15.452Z,11668.00
2022-10-17T10:49:15.406Z,11220.00
2022-10-17T10:50:15.393Z,11160.00
2022-10-17T10:51:15.385Z,11196.00
2022-10-17T10:52:15.425Z,10684.00
2022-10-17T10:53:15.366Z,10236.00
2022-10-17T10:54:15.315Z,9896.00
2022-10-17T10:55:15.307Z,9720.00
2022-10-17T10:56:15.283Z,9560.00
2022-10-17T10:57:15.260Z,9756.00
2022-10-17T10:58:15.270Z,9688.00
2022-10-17T10:59:15.223Z,9924.00
2022-10-17T11:00:15.208Z,10292.00
2022-10-17T11:01:15.256Z,10756.00
2022-10-17T11:02:15.167Z,11140.00
2022-10-17T11:03:15.172Z,11564.00
2022-10-17T11:04:15.133Z,11244.00
2022-10-17T11:05:15.109Z,11760.00
2022-10-17T11:06:15.088Z,11512.00
2022-10-17T11:07:15.070Z,11280.00
2022-10-17T11:08:15.074Z,11024.00
2022-10-17T11:09:15.031Z,10664.00
2022-10-17T11:10:15.015Z,10232.00
2022-10-17T11:11:14.993Z,9800.00
2022-10-17T11:12:14.973Z,9612.00
2022-10-17T11:13:14.991Z,9444.00
2022-10-17T11:14:14.940Z,9320.00
2022-10-17T11:15:14.921Z,8992.00
2022-10-17T11:16:14.896Z,8668.00
2022-10-17T11:17:14.888Z,8164.00
2022-10-17T11:18:14.887Z,7788.00
2022-10-17T11:19:14.847Z,7588.00
2022-10-17T11:20:14.827Z,7284.00
2022-10-17T11:21:14.807Z,7068.00
2022-10-17T11:22:14.792Z,7036.00
2022-10-17T11:23:14.803Z,7176.00
2022-10-17T11:24:14.747Z,7352.00
2022-10-17T11:25:14.730Z,7404.00
2022-10-17T11:26:14.717Z,7692.00
2022-10-17T11:27:14.694Z,7728.00
2022-10-17T11:28:14.706Z,7888.00
2022-10-17T11:29:14.654Z,8004.00
2022-10-17T11:30:14.638Z,8012.00
2022-10-17T11:31:14.616Z,7732.00
2022-10-17T11:32:14.600Z,7688.00
2022-10-17T11:33:14.607Z,7424.00
2022-10-17T11:34:14.563Z,7172.00
2022-10-17T11:35:14.547Z,6548.00
2022-10-17T11:36:14.523Z,6260.00
2022-10-17T11:37:14.508Z,6232.00
2022-10-17T11:38:14.517Z,6312.00
2022-10-17T11:39:14.470Z,6628.00
2022-10-17T11:40:14.455Z,7100.00
2022-10-17T11:41:14.427Z,7708.00
2022-10-17T11:42:14.409Z,8032.00
2022-10-17T11:43:14.417Z,8368.00
2022-10-17T11:44:14.373Z,8640.00
2022-10-17T11:45:14.362Z,8860.00
2022-10-17T11:46:14.344Z,9120.00
2022-10-17T11:47:14.318Z,9252.00
2022-10-17T11:48:14.327Z,9208.00
2022-10-17T11:49:19.903Z,9104.00
2022-10-17T11:52:26.977Z,8600.00
2022-10-17T11:53:16.232Z,8424.00
2022-10-17T11:54:15.092Z,8216.00
2022-10-17T11:55:14.174Z,8024.00
2022-10-17T11:56:14.164Z,7924.00
2022-10-17T11:57:14.922Z,7780.00
2022-10-17T11:58:15.196Z,7644.00
2022-10-17T11:59:14.096Z,7472.00
2022-10-17T12:00:14.080Z,7288.00
2022-10-17T12:01:14.062Z,6704.00
2022-10-17T12:02:14.044Z,6588.00
2022-10-17T12:03:14.057Z,6668.00
2022-10-17T12:04:14.072Z,6664.00
2022-10-17T12:05:13.983Z,6592.00
2022-10-17T12:06:13.955Z,6408.00
2022-10-17T12:07:14.947Z,6432.00
2022-10-17T12:08:13.952Z,6296.00
2022-10-17T12:09:13.907Z,6420.00
2022-10-17T12:10:13.887Z,6480.00
2022-10-17T12:11:13.871Z,6496.00
2022-10-17T12:12:13.948Z,6472.00
2022-10-17T12:13:13.856Z,6296.00
2022-10-17T12:14:13.816Z,6356.00
2022-10-17T12:15:13.798Z,6484.00
2022-10-17T12:16:17.442Z,6628.00
2022-10-17T12:17:14.971Z,6832.00
2022-10-17T12:18:13.762Z,7020.00
2022-10-17T12:19:13.718Z,7016.00
2022-10-17T12:20:13.715Z,7056.00
2022-10-17T12:21:13.678Z,7068.00
2022-10-17T12:22:13.657Z,7284.00
2022-10-17T12:23:13.671Z,7604.00
2022-10-17T12:24:18.764Z,7744.00
2022-10-17T12:25:15.602Z,8144.00
2022-10-17T12:26:13.583Z,8444.00
2022-10-17T12:27:13.568Z,8620.00
2022-10-17T12:28:13.573Z,8564.00
2022-10-17T12:29:13.530Z,8572.00
2022-10-17T12:30:13.513Z,8552.00